Time;durP1;ratioP1;P1;durP2;ratioP2;P2;SDS_P1;SDS_P2;PMS_P1;PMS_P2;Temp;Humidity;BMP_temperature;BMP_pressure;BME280_temperature;BME280_humidity;BME280_pressure;Samples;Min_cycle;Max_cycle;Signal;HPM_P1;HPM_P2
2023/12/30 00:01:58;;;;;;;;;;;18.40;54.10;;;;;;7398697;19;1559;-74
2023/12/30 00:04:23;;;;;;;;;;;18.40;54.20;;;;;;7395990;19;3689;-74
2023/12/30 00:06:49;;;;;;;;;;;18.40;54.30;;;;;;7399736;19;2767;-74
2023/12/30 00:09:14;;;;;;;;;;;18.30;54.10;;;;;;7394799;19;1049;-74
2023/12/30 00:11:39;;;;;;;;;;;18.30;54.20;;;;;;7395410;19;2648;-74
2023/12/30 00:14:05;;;;;;;;;;;18.30;54.20;;;;;;7399365;19;3145;-74
2023/12/30 00:16:30;;;;;;;;;;;18.20;54.10;;;;;;7397151;19;1582;-73
2023/12/30 00:18:56;;;;;;;;;;;18.20;54.20;;;;;;7392744;19;3369;-74
2023/12/30 00:21:21;;;;;;;;;;;18.20;54.10;;;;;;7399302;19;3022;-74
2023/12/30 00:23:47;;;;;;;;;;;18.20;54.30;;;;;;7394740;19;1835;-74
2023/12/30 00:26:22;;;;;;;;;;;18.20;54.30;;;;;;7393193;19;2638;-74
2023/12/30 00:28:51;;;;;;;;;;;18.10;54.30;;;;;;7398882;19;1461;-73
2023/12/30 00:31:22;;;;;;;;;;;18.10;54.40;;;;;;7397888;19;1836;-74
2023/12/30 00:33:48;;;;;;;;;;;18.10;54.40;;;;;;7391535;19;3624;-74
2023/12/30 00:36:13;;;;;;;;;;;18.10;54.40;;;;;;7381631;19;2973;-74
2023/12/30 00:38:39;;;;;;;;;;;18.10;54.40;;;;;;7374249;19;2063;-73
2023/12/30 00:41:05;;;;;;;;;;;18.00;54.40;;;;;;7369392;19;2537;-74
2023/12/30 00:43:31;;;;;;;;;;;18.00;54.40;;;;;;7382440;19;2428;-74
2023/12/30 00:45:57;;;;;;;;;;;18.00;55.00;;;;;;7399078;19;1416;-74
2023/12/30 00:48:22;;;;;;;;;;;18.00;54.70;;;;;;7393096;19;2815;-73
2023/12/30 00:50:48;;;;;;;;;;;17.90;54.10;;;;;;7398497;19;1925;-74
2023/12/30 00:53:14;;;;;;;;;;;17.90;54.20;;;;;;7393912;19;1211;-74
2023/12/30 00:55:39;;;;;;;;;;;17.90;54.30;;;;;;7396707;19;2839;-74
2023/12/30 00:58:05;;;;;;;;;;;17.90;54.30;;;;;;7397532;19;1560;-74
2023/12/30 01:00:30;;;;;;;;;;;17.90;54.50;;;;;;7394951;19;1497;-74
2023/12/30 01:02:56;;;;;;;;;;;17.80;54.40;;;;;;7397586;19;2822;-74
2023/12/30 01:05:21;;;;;;;;;;;17.80;54.30;;;;;;7394454;19;1846;-74
2023/12/30 01:07:47;;;;;;;;;;;17.80;54.40;;;;;;7395058;19;2200;-74
2023/12/30 01:10:12;;;;;;;;;;;17.80;54.50;;;;;;7395311;19;2853;-74
2023/12/30 01:12:38;;;;;;;;;;;17.80;54.50;;;;;;7400773;19;1490;-74
2023/12/30 01:15:03;;;;;;;;;;;17.70;54.50;;;;;;7401529;19;1416;-74
2023/12/30 01:17:31;;;;;;;;;;;17.70;55.30;;;;;;7394501;19;4008;-74
2023/12/30 01:19:56;;;;;;;;;;;17.70;54.80;;;;;;7399887;19;2897;-74
2023/12/30 01:22:22;;;;;;;;;;;17.70;54.80;;;;;;7396668;19;1530;-73
2023/12/30 01:24:47;;;;;;;;;;;17.60;54.70;;;;;;7394310;19;2806;-74
2023/12/30 01:27:13;;;;;;;;;;;17.60;54.70;;;;;;7395932;19;1631;-74
2023/12/30 01:29:38;;;;;;;;;;;17.60;54.70;;;;;;7396849;19;1488;-74
2023/12/30 01:32:04;;;;;;;;;;;17.60;54.80;;;;;;7393504;19;2759;-74
2023/12/30 01:34:29;;;;;;;;;;;17.60;54.90;;;;;;7391991;19;907;-74
2023/12/30 01:36:54;;;;;;;;;;;17.60;55.00;;;;;;7393130;19;2951;-74
2023/12/30 01:39:20;;;;;;;;;;;17.50;54.90;;;;;;7394702;19;4375;-74
2023/12/30 01:41:45;;;;;;;;;;;17.50;54.90;;;;;;7392607;19;2683;-74
2023/12/30 01:44:11;;;;;;;;;;;17.50;55.10;;;;;;7391843;19;1849;-74
2023/12/30 01:46:36;;;;;;;;;;;17.50;55.10;;;;;;7394521;19;2885;-74
2023/12/30 01:49:01;;;;;;;;;;;17.40;55.10;;;;;;7392470;19;994;-74
2023/12/30 01:51:27;;;;;;;;;;;17.40;55.10;;;;;;7394520;19;1470;-74
2023/12/30 01:53:52;;;;;;;;;;;17.40;55.30;;;;;;7392984;19;3074;-74
2023/12/30 01:56:18;;;;;;;;;;;17.50;55.30;;;;;;7392840;19;1447;-74
2023/12/30 01:58:43;;;;;;;;;;;17.40;55.20;;;;;;7397240;19;1495;-73
2023/12/30 02:01:09;;;;;;;;;;;17.40;55.20;;;;;;7391272;19;4084;-73
2023/12/30 02:03:34;;;;;;;;;;;17.30;55.20;;;;;;7391945;19;1822;-74
2023/12/30 02:06:00;;;;;;;;;;;17.30;55.30;;;;;;7392098;19;942;-74
2023/12/30 02:08:26;;;;;;;;;;;17.30;55.30;;;;;;7391274;19;3141;-74
2023/12/30 02:10:51;;;;;;;;;;;17.30;55.20;;;;;;7391752;19;1531;-74
2023/12/30 02:13:17;;;;;;;;;;;17.40;55.20;;;;;;7394650;19;1492;-74
2023/12/30 02:15:42;;;;;;;;;;;17.40;55.20;;;;;;7393645;19;3016;-74
2023/12/30 02:18:07;;;;;;;;;;;17.50;55.00;;;;;;7392746;19;826;-74
2023/12/30 02:20:33;;;;;;;;;;;17.70;54.50;;;;;;7397148;19;1738;-74
2023/12/30 02:22:59;;;;;;;;;;;17.90;54.30;;;;;;7397870;19;2789;-74
2023/12/30 02:25:24;;;;;;;;;;;18.00;54.10;;;;;;7397523;19;1905;-74
2023/12/30 02:27:50;;;;;;;;;;;18.30;53.60;;;;;;7401641;19;1520;-74
2023/12/30 02:30:15;;;;;;;;;;;18.60;53.20;;;;;;7400419;19;3825;-74
2023/12/30 02:32:41;;;;;;;;;;;18.90;52.30;;;;;;7402342;19;1356;-74
2023/12/30 02:35:06;;;;;;;;;;;19.50;51.40;;;;;;7398842;19;902;-75
2023/12/30 02:37:32;;;;;;;;;;;19.90;50.50;;;;;;7399359;19;3223;-74
2023/12/30 02:39:57;;;;;;;;;;;20.30;49.80;;;;;;7398870;19;1331;-74
2023/12/30 02:42:23;;;;;;;;;;;20.60;49.00;;;;;;7398568;19;1508;-74
2023/12/30 02:44:48;;;;;;;;;;;20.90;48.40;;;;;;7398532;19;2998;-75
2023/12/30 02:47:14;;;;;;;;;;;21.00;48.10;;;;;;7401130;19;1490;-74
2023/12/30 02:49:41;;;;;;;;;;;21.30;47.80;;;;;;7398430;19;1017;-74
2023/12/30 02:52:07;;;;;;;;;;;21.40;47.50;;;;;;7398625;19;4220;-74
2023/12/30 02:54:33;;;;;;;;;;;21.40;47.40;;;;;;7398380;19;1403;-74
2023/12/30 02:57:00;;;;;;;;;;;21.50;47.10;;;;;;7399955;19;1625;-74
2023/12/30 02:59:25;;;;;;;;;;;21.60;46.90;;;;;;7399427;19;2811;-75
2023/12/30 03:01:51;;;;;;;;;;;21.70;46.70;;;;;;7399811;19;1440;-74
2023/12/30 03:04:16;;;;;;;;;;;21.80;46.70;;;;;;7398186;19;1846;-74
2023/12/30 03:06:45;;;;;;;;;;;21.80;46.50;;;;;;7396686;19;2998;-74
2023/12/30 03:09:10;;;;;;;;;;;21.90;46.40;;;;;;7399470;19;1979;-74
2023/12/30 03:11:36;;;;;;;;;;;21.90;46.10;;;;;;7398037;19;1701;-74
2023/12/30 03:14:01;;;;;;;;;;;21.90;46.30;;;;;;7398807;19;3314;-74
2023/12/30 03:16:27;;;;;;;;;;;21.90;46.40;;;;;;7398775;19;1502;-74
2023/12/30 03:18:52;;;;;;;;;;;21.70;46.60;;;;;;7397184;19;1686;-74
2023/12/30 03:21:18;;;;;;;;;;;21.60;46.90;;;;;;7398905;19;2653;-74
2023/12/30 03:23:44;;;;;;;;;;;21.50;47.00;;;;;;7401720;19;1849;-74
2023/12/30 03:26:09;;;;;;;;;;;21.40;47.10;;;;;;7396299;19;1508;-74
2023/12/30 03:28:35;;;;;;;;;;;21.40;47.20;;;;;;7399164;19;4467;-74
2023/12/30 03:31:00;;;;;;;;;;;21.40;47.10;;;;;;7398577;19;2817;-74
2023/12/30 03:33:26;;;;;;;;;;;21.30;47.40;;;;;;7398188;19;1545;-74
2023/12/30 03:35:52;;;;;;;;;;;21.30;47.50;;;;;;7397942;19;3276;-74
2023/12/30 03:38:17;;;;;;;;;;;21.30;47.40;;;;;;7398330;19;776;-74
2023/12/30 03:40:43;;;;;;;;;;;21.20;47.50;;;;;;7396841;19;1015;-74
2023/12/30 03:43:08;;;;;;;;;;;21.20;47.50;;;;;;7397274;19;2814;-75
2023/12/30 03:45:33;;;;;;;;;;;21.20;47.60;;;;;;7394980;19;1838;-74
2023/12/30 03:47:59;;;;;;;;;;;21.30;47.60;;;;;;7399611;19;1383;-74
2023/12/30 03:50:25;;;;;;;;;;;21.30;47.50;;;;;;7398842;19;2523;-74
2023/12/30 03:52:51;;;;;;;;;;;21.30;47.50;;;;;;7399367;19;1548;-74
2023/12/30 03:55:16;;;;;;;;;;;21.20;47.50;;;;;;7396723;19;1147;-74
2023/12/30 03:57:42;;;;;;;;;;;21.20;47.60;;;;;;7397132;19;2813;-74
2023/12/30 04:00:07;;;;;;;;;;;21.30;47.60;;;;;;7396171;19;1380;-74
2023/12/30 04:02:33;;;;;;;;;;;21.30;47.50;;;;;;7398606;19;1509;-75
2023/12/30 04:04:58;;;;;;;;;;;21.20;47.60;;;;;;7396944;19;2940;-74
2023/12/30 04:07:24;;;;;;;;;;;21.00;47.80;;;;;;7394977;19;1313;-75
2023/12/30 04:09:49;;;;;;;;;;;21.00;48.00;;;;;;7394631;19;1057;-74
2023/12/30 04:12:15;;;;;;;;;;;21.10;47.80;;;;;;7396693;19;2930;-75
2023/12/30 04:14:40;;;;;;;;;;;21.20;47.70;;;;;;7395807;19;990;-74
2023/12/30 04:17:05;;;;;;;;;;;21.50;47.30;;;;;;7398543;19;1470;-74
2023/12/30 04:19:31;;;;;;;;;;;21.60;47.00;;;;;;7397131;19;3130;-74
2023/12/30 04:21:56;;;;;;;;;;;21.80;46.70;;;;;;7397914;19;3117;-74
2023/12/30 04:24:22;;;;;;;;;;;21.90;46.40;;;;;;7394850;19;2774;-74
2023/12/30 04:26:47;;;;;;;;;;;21.90;46.40;;;;;;7397657;19;2881;-74
2023/12/30 04:29:13;;;;;;;;;;;22.00;46.10;;;;;;7394001;19;2344;-75
2023/12/30 04:31:38;;;;;;;;;;;22.00;46.10;;;;;;7397413;19;3163;-74
2023/12/30 04:34:04;;;;;;;;;;;22.00;46.10;;;;;;7398597;19;3126;-75
2023/12/30 04:36:29;;;;;;;;;;;22.10;46.20;;;;;;7395359;19;1138;-74
2023/12/30 04:38:55;;;;;;;;;;;22.10;46.10;;;;;;7397078;19;2931;-75
2023/12/30 04:41:20;;;;;;;;;;;22.10;46.10;;;;;;7397995;19;2846;-74
2023/12/30 04:43:46;;;;;;;;;;;22.10;46.00;;;;;;7397986;19;1846;-74
2023/12/30 04:46:11;;;;;;;;;;;22.20;46.20;;;;;;7395683;19;4027;-74
2023/12/30 04:48:37;;;;;;;;;;;22.10;46.20;;;;;;7392781;19;3902;-75
2023/12/30 04:51:02;;;;;;;;;;;22.10;46.10;;;;;;7398827;19;2915;-74
2023/12/30 04:53:28;;;;;;;;;;;21.70;46.40;;;;;;7396675;19;2542;-74
2023/12/30 04:55:53;;;;;;;;;;;21.50;46.90;;;;;;7397902;19;3204;-74
2023/12/30 04:58:19;;;;;;;;;;;21.30;47.30;;;;;;7394188;19;839;-74
2023/12/30 05:00:44;;;;;;;;;;;21.10;47.70;;;;;;7393246;19;2784;-74
2023/12/30 05:03:10;;;;;;;;;;;20.80;48.00;;;;;;7394945;19;2485;-74
2023/12/30 05:05:35;;;;;;;;;;;20.50;48.60;;;;;;7392141;19;1854;-74
2023/12/30 05:08:01;;;;;;;;;;;20.30;48.90;;;;;;7392751;19;2799;-74
2023/12/30 05:10:26;;;;;;;;;;;20.10;49.40;;;;;;7395122;19;1850;-74
2023/12/30 05:12:52;;;;;;;;;;;19.90;49.70;;;;;;7396279;19;1372;-74
2023/12/30 05:15:17;;;;;;;;;;;19.80;50.00;;;;;;7392955;19;3827;-74
2023/12/30 05:17:43;;;;;;;;;;;19.70;50.30;;;;;;7395206;19;1456;-74
2023/12/30 05:20:10;;;;;;;;;;;19.60;50.40;;;;;;7396396;19;1547;-74
2023/12/30 05:22:35;;;;;;;;;;;19.50;50.60;;;;;;7392789;19;4515;-74
2023/12/30 05:25:01;;;;;;;;;;;19.40;50.70;;;;;;7397171;19;1840;-74
2023/12/30 05:27:26;;;;;;;;;;;19.40;51.00;;;;;;7392725;19;931;-74
2023/12/30 05:29:51;;;;;;;;;;;19.20;51.10;;;;;;7394194;19;3826;-74
2023/12/30 05:32:17;;;;;;;;;;;19.10;51.20;;;;;;7395622;19;1351;-74
2023/12/30 05:34:43;;;;;;;;;;;19.00;51.50;;;;;;7394791;19;852;-74
2023/12/30 05:37:10;;;;;;;;;;;18.80;51.70;;;;;;7394806;19;2914;-74
2023/12/30 05:39:35;;;;;;;;;;;18.70;51.90;;;;;;7392920;19;882;-74
2023/12/30 05:42:01;;;;;;;;;;;18.70;52.10;;;;;;7394986;19;1376;-74
2023/12/30 05:44:26;;;;;;;;;;;18.60;52.20;;;;;;7391253;19;4044;-74
2023/12/30 05:46:52;;;;;;;;;;;18.60;52.10;;;;;;7393171;19;1405;-74
2023/12/30 05:49:17;;;;;;;;;;;18.50;52.20;;;;;;7398302;19;1521;-74
2023/12/30 05:51:43;;;;;;;;;;;18.50;52.10;;;;;;7393049;19;3431;-74
2023/12/30 05:54:09;;;;;;;;;;;18.50;52.20;;;;;;7395903;19;3028;-73
2023/12/30 05:56:35;;;;;;;;;;;18.50;52.20;;;;;;7401166;19;1572;-74
2023/12/30 05:59:00;;;;;;;;;;;18.50;52.40;;;;;;7399422;19;3032;-74
2023/12/30 06:01:25;;;;;;;;;;;18.50;52.30;;;;;;7401603;19;1334;-74
2023/12/30 06:03:51;;;;;;;;;;;18.40;52.40;;;;;;7404472;19;1857;-73
2023/12/30 06:06:16;;;;;;;;;;;18.40;52.50;;;;;;7399744;19;2837;-74
2023/12/30 06:08:42;;;;;;;;;;;18.40;52.50;;;;;;7400545;19;1623;-74
2023/12/30 06:11:07;;;;;;;;;;;18.40;52.50;;;;;;7399951;19;1329;-74
2023/12/30 06:13:34;;;;;;;;;;;18.40;52.40;;;;;;7402177;19;2908;-74
2023/12/30 06:15:59;;;;;;;;;;;18.40;52.40;;;;;;7404708;19;799;-74
2023/12/30 06:18:30;;;;;;;;;;;18.40;52.50;;;;;;7404559;19;1412;-74
2023/12/30 06:20:56;;;;;;;;;;;18.40;52.30;;;;;;7401429;19;2882;-74
2023/12/30 06:23:21;;;;;;;;;;;18.40;52.30;;;;;;7401030;19;1001;-74
2023/12/30 06:25:46;;;;;;;;;;;18.40;52.40;;;;;;7396659;19;1856;-74
2023/12/30 06:28:12;;;;;;;;;;;18.40;52.50;;;;;;7398416;19;3696;-74
2023/12/30 06:30:37;;;;;;;;;;;18.40;52.50;;;;;;7402099;19;2690;-74
2023/12/30 06:33:06;;;;;;;;;;;18.30;52.50;;;;;;7404113;19;1727;-74
2023/12/30 06:35:32;;;;;;;;;;;18.30;52.50;;;;;;7398523;19;2841;-74
2023/12/30 06:37:58;;;;;;;;;;;18.30;52.50;;;;;;7399289;19;1290;-74
2023/12/30 06:40:23;;;;;;;;;;;18.20;52.40;;;;;;7399085;19;1124;-74
2023/12/30 06:42:49;;;;;;;;;;;18.20;52.50;;;;;;7399268;19;2924;-74
2023/12/30 06:45:14;;;;;;;;;;;18.20;52.80;;;;;;7396961;19;1845;-74
2023/12/30 06:47:41;;;;;;;;;;;18.10;52.80;;;;;;7402428;19;1481;-74
2023/12/30 06:50:07;;;;;;;;;;;18.10;53.10;;;;;;7398904;19;3988;-74
2023/12/30 06:52:33;;;;;;;;;;;18.00;53.20;;;;;;7402660;19;1412;-74
2023/12/30 06:54:59;;;;;;;;;;;17.90;53.30;;;;;;7398813;19;1116;-74
2023/12/30 06:57:25;;;;;;;;;;;17.90;53.30;;;;;;7397690;19;2820;-74
2023/12/30 06:59:50;;;;;;;;;;;17.80;53.20;;;;;;7398084;19;788;-74
2023/12/30 07:02:16;;;;;;;;;;;17.80;53.20;;;;;;7395650;19;3753;-74
2023/12/30 07:04:41;;;;;;;;;;;17.80;53.20;;;;;;7397286;19;3034;-74
2023/12/30 07:07:07;;;;;;;;;;;17.80;53.20;;;;;;7398772;19;1591;-74
2023/12/30 07:09:32;;;;;;;;;;;17.80;53.20;;;;;;7400035;19;2673;-74
2023/12/30 07:11:58;;;;;;;;;;;17.70;53.20;;;;;;7398191;19;3504;-74
2023/12/30 07:14:23;;;;;;;;;;;17.80;53.20;;;;;;7400135;19;1527;-73
2023/12/30 07:16:49;;;;;;;;;;;17.80;53.10;;;;;;7398886;19;2827;-74
2023/12/30 07:19:14;;;;;;;;;;;17.90;53.20;;;;;;7399080;19;2841;-74
2023/12/30 07:21:40;;;;;;;;;;;17.90;52.90;;;;;;7399803;19;1628;-74
2023/12/30 07:24:06;;;;;;;;;;;17.90;52.90;;;;;;7400199;19;1868;-74
2023/12/30 07:26:31;;;;;;;;;;;17.90;53.20;;;;;;7397002;19;2937;-73
2023/12/30 07:28:57;;;;;;;;;;;17.80;53.10;;;;;;7399339;19;2726;-74
2023/12/30 07:31:22;;;;;;;;;;;17.80;53.20;;;;;;7398209;19;4238;-73
2023/12/30 07:33:49;;;;;;;;;;;17.90;53.00;;;;;;7397797;19;4184;-73
2023/12/30 07:36:14;;;;;;;;;;;17.90;52.70;;;;;;7396902;19;910;-74
2023/12/30 07:38:40;;;;;;;;;;;18.00;52.80;;;;;;7400135;19;1544;-74
2023/12/30 07:41:05;;;;;;;;;;;17.90;52.70;;;;;;7396314;19;2921;-74
2023/12/30 07:43:31;;;;;;;;;;;18.00;52.70;;;;;;7399414;19;1536;-74
2023/12/30 07:45:56;;;;;;;;;;;18.00;52.70;;;;;;7394336;19;1854;-74
2023/12/30 07:48:21;;;;;;;;;;;18.00;52.70;;;;;;7399028;19;2649;-74
2023/12/30 07:50:47;;;;;;;;;;;17.90;52.70;;;;;;7399519;19;1371;-74
2023/12/30 07:53:12;;;;;;;;;;;18.00;52.60;;;;;;7398713;19;1596;-74
2023/12/30 07:55:38;;;;;;;;;;;17.90;52.70;;;;;;7397306;19;3578;-74
2023/12/30 07:58:03;;;;;;;;;;;17.90;52.90;;;;;;7395775;19;1603;-74
2023/12/30 08:00:28;;;;;;;;;;;17.90;52.90;;;;;;7401292;19;1601;-74
2023/12/30 08:02:54;;;;;;;;;;;17.80;52.90;;;;;;7395915;19;2865;-74
2023/12/30 08:05:19;;;;;;;;;;;17.80;53.00;;;;;;7397791;19;3488;-74
2023/12/30 08:07:45;;;;;;;;;;;17.70;53.00;;;;;;7394718;19;1308;-74
2023/12/30 08:10:13;;;;;;;;;;;17.70;53.10;;;;;;7395205;19;2966;-74
2023/12/30 08:12:39;;;;;;;;;;;17.70;53.10;;;;;;7400419;19;1431;-74
2023/12/30 08:15:04;;;;;;;;;;;17.60;53.00;;;;;;7395867;19;1191;-73
2023/12/30 08:17:30;;;;;;;;;;;17.60;53.10;;;;;;7393368;19;3419;-74
2023/12/30 08:19:56;;;;;;;;;;;17.60;53.20;;;;;;7398647;19;2860;-74
2023/12/30 08:22:23;;;;;;;;;;;17.60;53.30;;;;;;7398003;19;2507;-74
2023/12/30 08:24:50;;;;;;;;;;;17.60;53.30;;;;;;7395945;19;2869;-74
2023/12/30 08:27:15;;;;;;;;;;;17.50;53.10;;;;;;7398420;19;1549;-74
2023/12/30 08:29:40;;;;;;;;;;;17.60;53.00;;;;;;7393867;19;2564;-74
2023/12/30 08:32:06;;;;;;;;;;;17.60;53.00;;;;;;7399741;19;2809;-74
2023/12/30 08:34:32;;;;;;;;;;;17.60;53.00;;;;;;7395880;19;2220;-74
2023/12/30 08:36:58;;;;;;;;;;;17.80;53.20;;;;;;7397216;19;2684;-74
2023/12/30 08:39:24;;;;;;;;;;;17.70;53.10;;;;;;7396247;19;4104;-74
2023/12/30 08:41:49;;;;;;;;;;;17.60;53.00;;;;;;7398098;19;1489;-74
2023/12/30 08:44:15;;;;;;;;;;;17.60;53.10;;;;;;7396759;19;1849;-74
2023/12/30 08:46:40;;;;;;;;;;;17.60;53.10;;;;;;7396469;19;3428;-74
2023/12/30 08:49:05;;;;;;;;;;;17.60;53.00;;;;;;7399812;19;1288;-74
2023/12/30 08:51:32;;;;;;;;;;;17.60;53.00;;;;;;7396690;19;1401;-74
2023/12/30 08:53:57;;;;;;;;;;;17.70;53.00;;;;;;7395601;19;3909;-74
2023/12/30 08:56:23;;;;;;;;;;;17.60;52.90;;;;;;7397901;19;1473;-74
2023/12/30 08:58:48;;;;;;;;;;;17.70;53.00;;;;;;7394381;19;1093;-74
2023/12/30 09:01:14;;;;;;;;;;;17.60;52.90;;;;;;7391392;19;3027;-74
2023/12/30 09:03:39;;;;;;;;;;;17.50;52.90;;;;;;7392094;19;4331;-74
2023/12/30 09:06:05;;;;;;;;;;;17.60;53.00;;;;;;7394265;19;2922;-74
2023/12/30 09:08:30;;;;;;;;;;;17.60;53.00;;;;;;7392733;19;3407;-74
2023/12/30 09:10:56;;;;;;;;;;;17.60;52.90;;;;;;7394742;19;2195;-74
2023/12/30 09:13:22;;;;;;;;;;;17.60;52.90;;;;;;7396726;19;823;-74
2023/12/30 09:15:47;;;;;;;;;;;17.60;53.00;;;;;;7397371;19;3409;-74
2023/12/30 09:18:13;;;;;;;;;;;17.60;53.00;;;;;;7392901;19;775;-74
2023/12/30 09:20:38;;;;;;;;;;;17.50;52.90;;;;;;7398918;19;1598;-74
2023/12/30 09:23:04;;;;;;;;;;;17.50;52.90;;;;;;7397991;19;2972;-74
2023/12/30 09:25:29;;;;;;;;;;;17.60;53.00;;;;;;7395033;19;1853;-74
2023/12/30 09:27:55;;;;;;;;;;;17.60;52.90;;;;;;7392646;19;946;-74
2023/12/30 09:30:20;;;;;;;;;;;17.60;53.60;;;;;;7393939;19;3357;-74
2023/12/30 09:32:46;;;;;;;;;;;17.60;52.80;;;;;;7395623;19;3850;-74
2023/12/30 09:35:11;;;;;;;;;;;17.60;52.90;;;;;;7393172;19;1067;-74
2023/12/30 09:37:36;;;;;;;;;;;17.60;53.00;;;;;;7394332;19;3850;-74
2023/12/30 09:40:02;;;;;;;;;;;17.60;53.00;;;;;;7392070;19;2716;-74
2023/12/30 09:42:27;;;;;;;;;;;17.60;52.90;;;;;;7394964;19;4188;-74
2023/12/30 09:44:53;;;;;;;;;;;17.60;52.90;;;;;;7392389;19;3303;-74
2023/12/30 09:47:18;;;;;;;;;;;17.60;52.90;;;;;;7392180;19;1078;-74
2023/12/30 09:49:44;;;;;;;;;;;17.50;52.90;;;;;;7392611;19;790;-74
2023/12/30 09:52:09;;;;;;;;;;;17.60;53.00;;;;;;7393165;19;4188;-74
2023/12/30 09:54:35;;;;;;;;;;;17.60;52.70;;;;;;7394913;19;3043;-74
2023/12/30 09:57:00;;;;;;;;;;;17.70;52.50;;;;;;7395146;19;3154;-74
2023/12/30 09:59:40;;;;;;;;;;;17.90;52.30;;;;;;7394333;19;3410;-74
2023/12/30 10:02:07;;;;;;;;;;;18.00;52.00;;;;;;7395238;19;1828;-74
2023/12/30 10:04:33;;;;;;;;;;;18.00;52.00;;;;;;7391431;19;1849;-74
2023/12/30 10:06:58;;;;;;;;;;;18.10;51.90;;;;;;7390742;19;2471;-74
2023/12/30 10:09:23;;;;;;;;;;;18.20;51.90;;;;;;7392021;19;1146;-74
2023/12/30 10:11:49;;;;;;;;;;;18.20;51.60;;;;;;7392572;19;4121;-73
2023/12/30 10:14:14;;;;;;;;;;;18.40;51.60;;;;;;7393530;19;3114;-74
2023/12/30 10:16:40;;;;;;;;;;;18.40;51.30;;;;;;7393706;19;3691;-74
2023/12/30 10:19:09;;;;;;;;;;;18.50;51.20;;;;;;7392501;19;1370;-74
2023/12/30 10:21:35;;;;;;;;;;;18.60;51.20;;;;;;7393159;19;3931;-74
2023/12/30 10:24:03;;;;;;;;;;;18.60;51.00;;;;;;7389030;19;4081;-74
2023/12/30 10:26:29;;;;;;;;;;;18.60;51.20;;;;;;7387368;19;3631;-74
2023/12/30 10:28:54;;;;;;;;;;;18.70;51.00;;;;;;7390199;19;3270;-74
2023/12/30 10:31:20;;;;;;;;;;;18.70;51.00;;;;;;7390967;19;1997;-74
2023/12/30 10:33:47;;;;;;;;;;;18.70;51.00;;;;;;7389771;19;3111;-74
2023/12/30 10:36:12;;;;;;;;;;;18.70;50.90;;;;;;7389031;19;3128;-74
2023/12/30 10:38:38;;;;;;;;;;;18.70;51.80;;;;;;7390136;19;4965;-74
2023/12/30 10:41:03;;;;;;;;;;;18.80;51.60;;;;;;7387784;19;3087;-74
2023/12/30 10:43:29;;;;;;;;;;;19.20;51.20;;;;;;7398636;19;2946;-74
2023/12/30 10:45:58;;;;;;;;;;;19.90;50.00;;;;;;7394455;19;2772;-74
2023/12/30 10:48:29;;;;;;;;;;;20.40;49.00;;;;;;7394729;19;4053;-74
2023/12/30 10:50:54;;;;;;;;;;;20.90;48.20;;;;;;7396916;19;4585;-74
2023/12/30 10:53:23;;;;;;;;;;;21.00;47.80;;;;;;7396252;19;2593;-74
2023/12/30 10:55:50;;;;;;;;;;;20.90;48.00;;;;;;7400574;19;3047;-74
2023/12/30 10:58:19;;;;;;;;;;;20.80;48.20;;;;;;7400599;19;3371;-74
2023/12/30 11:00:45;;;;;;;;;;;20.80;48.10;;;;;;7402724;19;2973;-74
2023/12/30 11:03:11;;;;;;;;;;;20.90;48.00;;;;;;7401026;19;3190;-74
2023/12/30 11:06:00;;;;;;;;;;;21.10;47.80;;;;;;7394597;19;3753;-74
2023/12/30 11:08:25;;;;;;;;;;;21.30;47.50;;;;;;7394373;19;2796;-74
2023/12/30 11:10:51;;;;;;;;;;;21.20;47.40;;;;;;7396848;19;3125;-74
2023/12/30 11:13:20;;;;;;;;;;;21.20;47.60;;;;;;7398962;19;1940;-74
2023/12/30 11:15:45;;;;;;;;;;;21.20;47.80;;;;;;7401118;19;2463;-74
2023/12/30 11:18:11;;;;;;;;;;;21.30;47.60;;;;;;7396955;19;2845;-74
2023/12/30 11:20:36;;;;;;;;;;;21.50;47.30;;;;;;7400605;19;1628;-74
2023/12/30 11:23:02;;;;;;;;;;;21.70;47.00;;;;;;7400157;19;2391;-73
2023/12/30 11:25:34;;;;;;;;;;;21.90;46.70;;;;;;7393684;19;3237;-73
2023/12/30 11:28:18;;;;;;;;;;;21.90;46.60;;;;;;7400459;19;1408;-73
2023/12/30 11:30:44;;;;;;;;;;;22.10;46.60;;;;;;7400322;19;1958;-74
2023/12/30 11:33:09;;;;;;;;;;;22.30;46.40;;;;;;7398826;19;2869;-74
2023/12/30 11:35:35;;;;;;;;;;;22.30;46.40;;;;;;7397636;19;2841;-74
2023/12/30 11:38:01;;;;;;;;;;;22.40;46.40;;;;;;7397009;19;1227;-74
2023/12/30 11:40:28;;;;;;;;;;;22.40;46.40;;;;;;7392490;19;4138;-74
2023/12/30 11:42:53;;;;;;;;;;;22.40;46.40;;;;;;7398832;19;3069;-72
2023/12/30 11:45:19;;;;;;;;;;;22.30;46.50;;;;;;7396799;19;2808;-73
2023/12/30 11:47:45;;;;;;;;;;;22.40;46.40;;;;;;7396062;19;1678;-73
2023/12/30 11:50:11;;;;;;;;;;;22.40;46.40;;;;;;7399461;19;1655;-74
2023/12/30 11:52:39;;;;;;;;;;;22.40;46.40;;;;;;7398947;19;1621;-74
2023/12/30 11:55:05;;;;;;;;;;;22.40;46.50;;;;;;7398424;19;2153;-74
2023/12/30 11:57:31;;;;;;;;;;;22.50;47.20;;;;;;7398474;19;2954;-74
2023/12/30 11:59:57;;;;;;;;;;;22.50;46.50;;;;;;7395594;19;1503;-74
2023/12/30 12:02:22;;;;;;;;;;;22.50;46.50;;;;;;7395315;19;2032;-74
2023/12/30 12:04:48;;;;;;;;;;;22.50;46.50;;;;;;7388720;19;3959;-73
2023/12/30 12:07:14;;;;;;;;;;;22.50;46.70;;;;;;7397742;19;2666;-73
2023/12/30 12:09:40;;;;;;;;;;;22.50;46.80;;;;;;7397049;19;4560;-74
2023/12/30 12:12:06;;;;;;;;;;;22.40;46.70;;;;;;7398556;19;1463;-74
2023/12/30 12:14:31;;;;;;;;;;;22.40;46.90;;;;;;7399583;19;1742;-74
2023/12/30 12:16:57;;;;;;;;;;;22.50;47.00;;;;;;7389671;19;4219;-74
2023/12/30 12:19:22;;;;;;;;;;;22.40;47.30;;;;;;7397511;19;3067;-74
2023/12/30 12:21:48;;;;;;;;;;;22.30;47.50;;;;;;7398117;19;2722;-74
2023/12/30 12:24:13;;;;;;;;;;;22.30;47.60;;;;;;7397855;19;1845;-74
2023/12/30 12:26:38;;;;;;;;;;;22.40;47.50;;;;;;7397943;19;1595;-74
2023/12/30 12:29:04;;;;;;;;;;;22.40;47.30;;;;;;7392752;19;1788;-74
2023/12/30 12:31:30;;;;;;;;;;;22.50;47.20;;;;;;7396695;19;2037;-75
2023/12/30 12:33:55;;;;;;;;;;;22.60;46.90;;;;;;7395594;19;2877;-74
2023/12/30 12:36:21;;;;;;;;;;;22.60;47.00;;;;;;7395428;19;3120;-75
2023/12/30 12:38:47;;;;;;;;;;;22.50;47.10;;;;;;7394829;19;4661;-75
2023/12/30 12:41:13;;;;;;;;;;;22.40;47.30;;;;;;7394906;19;5175;-74
2023/12/30 12:43:38;;;;;;;;;;;22.40;47.40;;;;;;7400375;19;2208;-74
2023/12/30 12:46:04;;;;;;;;;;;22.40;47.40;;;;;;7390810;19;3828;-74
2023/12/30 12:48:29;;;;;;;;;;;22.50;47.40;;;;;;7396264;19;1614;-75
2023/12/30 12:50:55;;;;;;;;;;;22.50;47.50;;;;;;7394469;19;1830;-74
2023/12/30 12:53:21;;;;;;;;;;;22.40;47.60;;;;;;7395476;19;3722;-74
2023/12/30 12:55:47;;;;;;;;;;;22.50;47.50;;;;;;7393895;19;1523;-74
2023/12/30 12:58:12;;;;;;;;;;;22.50;47.50;;;;;;7396010;19;1735;-74
2023/12/30 13:00:38;;;;;;;;;;;22.30;47.70;;;;;;7391671;19;3482;-74
2023/12/30 13:03:04;;;;;;;;;;;22.40;47.80;;;;;;7396255;19;1927;-74
2023/12/30 13:05:30;;;;;;;;;;;22.40;47.80;;;;;;7395311;19;1878;-75
2023/12/30 13:07:56;;;;;;;;;;;22.30;48.10;;;;;;7390436;19;2960;-75
2023/12/30 13:12:48;;;;;;;;;;;21.90;48.90;;;;;;7393942;19;3222;-73
2023/12/30 13:15:19;;;;;;;;;;;21.90;49.10;;;;;;7394589;19;3102;-74
2023/12/30 13:17:45;;;;;;;;;;;22.00;48.90;;;;;;7392378;19;3316;-74
2023/12/30 13:20:11;;;;;;;;;;;22.20;48.60;;;;;;7394768;19;2836;-74
2023/12/30 13:22:37;;;;;;;;;;;22.30;48.30;;;;;;7392371;19;4109;-74
2023/12/30 13:25:05;;;;;;;;;;;22.40;48.20;;;;;;7394135;19;1845;-74
2023/12/30 13:27:31;;;;;;;;;;;22.50;47.90;;;;;;7391101;19;2486;-74
2023/12/30 13:29:56;;;;;;;;;;;22.50;47.70;;;;;;7397510;19;2928;-74
2023/12/30 13:32:25;;;;;;;;;;;22.60;47.60;;;;;;7396664;19;1322;-74
2023/12/30 13:34:53;;;;;;;;;;;22.60;47.60;;;;;;7393621;19;2676;-74
2023/12/30 13:37:19;;;;;;;;;;;22.50;47.70;;;;;;7397816;19;3240;-74
2023/12/30 13:39:44;;;;;;;;;;;22.40;47.80;;;;;;7396052;19;1560;-74
2023/12/30 13:42:13;;;;;;;;;;;22.30;47.90;;;;;;7392440;19;4221;-74
2023/12/30 13:44:42;;;;;;;;;;;22.30;47.90;;;;;;7397448;19;1844;-74
2023/12/30 13:52:37;;;;;;;;;;;22.60;47.30;;;;;;7396244;19;2918;-75
2023/12/30 13:55:06;;;;;;;;;;;22.60;47.00;;;;;;7396667;19;3048;-74
2023/12/30 13:57:32;;;;;;;;;;;22.60;46.90;;;;;;7392540;19;3454;-74
2023/12/30 13:59:58;;;;;;;;;;;22.70;46.80;;;;;;7392946;19;1298;-74
2023/12/30 14:02:24;;;;;;;;;;;22.80;46.70;;;;;;7395401;19;1384;-74
2023/12/30 14:04:53;;;;;;;;;;;22.80;46.70;;;;;;7392412;19;2863;-74
2023/12/30 14:07:26;;;;;;;;;;;22.90;46.60;;;;;;7391644;19;1311;-74
2023/12/30 14:09:54;;;;;;;;;;;22.90;46.60;;;;;;7390608;19;2846;-75
2023/12/30 14:12:23;;;;;;;;;;;22.80;46.70;;;;;;7392792;19;3241;-75
2023/12/30 14:14:54;;;;;;;;;;;22.70;46.60;;;;;;7397711;19;1607;-73
2023/12/30 14:17:20;;;;;;;;;;;22.80;46.70;;;;;;7399798;19;3148;-74
2023/12/30 14:19:48;;;;;;;;;;;22.80;46.70;;;;;;7398039;19;3048;-74
2023/12/30 14:22:14;;;;;;;;;;;22.80;46.50;;;;;;7399207;19;3108;-73
2023/12/30 14:24:39;;;;;;;;;;;22.90;46.60;;;;;;7400902;19;1863;-73
2023/12/30 14:27:05;;;;;;;;;;;22.90;46.30;;;;;;7400163;19;3046;-73
2023/12/30 14:29:30;;;;;;;;;;;22.90;46.30;;;;;;7404529;19;1552;-73
2023/12/30 14:31:57;;;;;;;;;;;22.80;46.30;;;;;;7401545;19;1924;-73